Time,TemperatureF,DewpointF,PressureIn,WindDirection,WindDirectionDegrees,WindSpeedMPH,WindSpeedGustMPH,Humidity,HourlyPrecipIn,Conditions,Clouds,dailyrainin,SoftwareType,DateUTC
2013-04-18 00:03:00,38.0,24.0,29.51,North,-999,-999.0,-999.0,56,0.00,,,0.00,,2013-04-18 04:03:00,
2013-04-18 00:13:00,38.0,24.0,29.51,North,-999,-999.0,-999.0,56,0.00,,,0.00,,2013-04-18 04:13:00,
2013-04-18 00:23:00,37.0,24.0,29.52,North,-999,-999.0,-999.0,58,0.00,,,0.00,,2013-04-18 04:23:00,
2013-04-18 00:33:00,36.0,23.0,29.54,North,-999,-999.0,-999.0,59,0.00,,,0.00,,2013-04-18 04:33:00,
2013-04-18 00:43:00,36.0,24.0,29.53,North,-999,-999.0,-999.0,61,0.00,,,0.00,,2013-04-18 04:43:00,
2013-04-18 00:53:00,36.0,24.0,29.53,North,-999,-999.0,-999.0,61,0.00,,,0.00,,2013-04-18 04:53:00,
2013-04-18 01:02:00,35.0,23.0,29.55,North,-999,-999.0,-999.0,61,0.00,,,0.00,,2013-04-18 05:02:00,
2013-04-18 01:12:00,35.0,24.0,29.56,North,-999,-999.0,-999.0,63,0.00,,,0.00,,2013-04-18 05:12:00,
2013-04-18 01:22:00,35.0,24.0,29.56,North,-999,-999.0,-999.0,63,0.00,,,0.00,,2013-04-18 05:22:00,
2013-04-18 01:33:00,34.0,23.0,29.56,North,-999,-999.0,-999.0,63,0.00,,,0.00,,2013-04-18 05:33:00,
2013-04-18 01:42:00,34.0,23.0,29.56,North,-999,-999.0,-999.0,64,0.00,,,0.00,,2013-04-18 05:42:00,
2013-04-18 01:52:00,34.0,23.0,29.56,North,-999,-999.0,-999.0,64,0.00,,,0.00,,2013-04-18 05:52:00,
2013-04-18 02:02:00,34.0,23.0,29.55,North,-999,-999.0,-999.0,64,0.00,,,0.00,,2013-04-18 06:02:00,
2013-04-18 02:12:00,34.0,23.0,29.55,North,-999,-999.0,-999.0,64,0.00,,,0.00,,2013-04-18 06:12:00,
2013-04-18 02:22:00,33.0,23.0,29.55,North,-999,-999.0,-999.0,65,0.00,,,0.00,,2013-04-18 06:22:00,
2013-04-18 02:32:00,33.0,23.0,29.55,North,-999,-999.0,-999.0,65,0.00,,,0.00,,2013-04-18 06:32:00,
2013-04-18 02:42:00,32.0,22.0,29.55,North,-999,-999.0,-999.0,66,0.00,,,0.00,,2013-04-18 06:42:00,
2013-04-18 02:52:00,32.0,22.0,29.55,North,-999,-999.0,-999.0,66,0.00,,,0.00,,2013-04-18 06:52:00,
2013-04-18 03:02:00,32.0,22.0,29.55,North,-999,-999.0,-999.0,66,0.00,,,0.00,,2013-04-18 07:02:00,
2013-04-18 03:12:00,31.0,21.0,29.55,North,-999,-999.0,-999.0,67,0.00,,,0.00,,2013-04-18 07:12:00,
2013-04-18 03:22:00,31.0,21.0,29.55,North,-999,-999.0,-999.0,67,0.00,,,0.00,,2013-04-18 07:22:00,
2013-04-18 03:32:00,31.0,21.0,29.57,North,-999,-999.0,-999.0,67,0.00,,,0.00,,2013-04-18 07:32:00,
2013-04-18 03:42:00,30.0,20.0,29.58,North,-999,-999.0,-999.0,67,0.00,,,0.00,,2013-04-18 07:42:00,
2013-04-18 03:53:00,30.0,20.0,29.58,North,-999,-999.0,-999.0,67,0.00,,,0.00,,2013-04-18 07:53:00,
2013-04-18 04:02:00,30.0,21.0,29.58,North,-999,-999.0,-999.0,68,0.00,,,0.00,,2013-04-18 08:02:00,
2013-04-18 04:12:00,30.0,21.0,29.58,North,-999,-999.0,-999.0,68,0.00,,,0.00,,2013-04-18 08:12:00,
2013-04-18 04:22:00,30.0,21.0,29.58,North,-999,-999.0,-999.0,68,0.00,,,0.00,,2013-04-18 08:22:00,
2013-04-18 04:32:00,30.0,21.0,29.60,North,-999,-999.0,-999.0,68,0.00,,,0.00,,2013-04-18 08:32:00,
2013-04-18 04:42:00,30.0,21.0,29.61,North,-999,-999.0,-999.0,69,0.00,,,0.00,,2013-04-18 08:42:00,
2013-04-18 04:52:00,30.0,21.0,29.61,North,-999,-999.0,-999.0,69,0.00,,,0.00,,2013-04-18 08:52:00,
2013-04-18 05:02:00,29.0,20.0,29.60,North,-999,-999.0,-999.0,69,0.00,,,0.00,,2013-04-18 09:02:00,
2013-04-18 05:12:00,29.0,20.0,29.61,North,-999,-999.0,-999.0,69,0.00,,,0.00,,2013-04-18 09:12:00,
2013-04-18 05:22:00,29.0,20.0,29.61,North,-999,-999.0,-999.0,69,0.00,,,0.00,,2013-04-18 09:22:00,
2013-04-18 05:33:00,29.0,20.0,29.60,North,-999,-999.0,-999.0,69,0.00,,,0.00,,2013-04-18 09:33:00,
2013-04-18 05:43:00,29.0,20.0,29.60,North,-999,-999.0,-999.0,70,0.00,,,0.00,,2013-04-18 09:43:00,
2013-04-18 05:53:00,29.0,20.0,29.60,North,-999,-999.0,-999.0,70,0.00,,,0.00,,2013-04-18 09:53:00,
2013-04-18 06:03:00,29.0,20.0,29.59,North,-999,-999.0,-999.0,70,0.00,,,0.00,,2013-04-18 10:03:00,
2013-04-18 06:12:00,29.0,20.0,29.59,North,-999,-999.0,-999.0,70,0.00,,,0.00,,2013-04-18 10:12:00,
2013-04-18 06:23:00,29.0,20.0,29.59,North,-999,-999.0,-999.0,70,0.00,,,0.00,,2013-04-18 10:23:00,
2013-04-18 06:32:00,28.0,20.0,29.59,North,-999,-999.0,-999.0,70,0.00,,,0.00,,2013-04-18 10:32:00,
2013-04-18 06:42:00,28.0,20.0,29.59,North,-999,-999.0,-999.0,70,0.00,,,0.00,,2013-04-18 10:42:00,
2013-04-18 06:53:00,29.0,21.0,29.59,North,-999,-999.0,-999.0,71,0.00,,,0.00,,2013-04-18 10:53:00,
2013-04-18 07:02:00,30.0,22.0,29.60,North,-999,-999.0,-999.0,71,0.00,,,0.00,,2013-04-18 11:02:00,
2013-04-18 07:12:00,31.0,23.0,29.60,North,-999,-999.0,-999.0,71,0.00,,,0.00,,2013-04-18 11:12:00,
2013-04-18 07:22:00,31.0,23.0,29.60,North,-999,-999.0,-999.0,71,0.00,,,0.00,,2013-04-18 11:22:00,
2013-04-18 07:32:00,31.0,22.0,29.60,North,-999,-999.0,-999.0,70,0.00,,,0.00,,2013-04-18 11:32:00,
2013-04-18 07:42:00,31.0,22.0,29.60,North,-999,-999.0,-999.0,70,0.00,,,0.00,,2013-04-18 11:42:00,
2013-04-18 07:52:00,35.0,25.0,29.63,North,-999,-999.0,-999.0,66,0.00,,,0.00,,2013-04-18 11:52:00,
2013-04-18 08:02:00,37.0,25.0,29.62,North,-999,-999.0,-999.0,62,0.00,,,0.00,,2013-04-18 12:02:00,
2013-04-18 08:12:00,37.0,25.0,29.62,North,-999,-999.0,-999.0,62,0.00,,,0.00,,2013-04-18 12:12:00,
2013-04-18 08:23:00,39.0,26.0,29.62,North,-999,-999.0,-999.0,59,0.00,,,0.00,,2013-04-18 12:23:00,
2013-04-18 08:32:00,41.0,25.0,29.63,North,-999,-999.0,-999.0,53,0.00,,,0.00,,2013-04-18 12:32:00,
2013-04-18 08:42:00,41.0,25.0,29.63,North,-999,-999.0,-999.0,53,0.00,,,0.00,,2013-04-18 12:42:00,
2013-04-18 08:52:00,42.0,26.0,29.63,North,-999,-999.0,-999.0,52,0.00,,,0.00,,2013-04-18 12:52:00,
2013-04-18 09:03:00,43.0,26.0,29.63,North,-999,-999.0,-999.0,51,0.00,,,0.00,,2013-04-18 13:03:00,
2013-04-18 09:12:00,43.0,26.0,29.63,North,-999,-999.0,-999.0,51,0.00,,,0.00,,2013-04-18 13:12:00,
2013-04-18 09:22:00,45.0,27.0,29.61,North,-999,-999.0,-999.0,48,0.00,,,0.00,,2013-04-18 13:22:00,
2013-04-18 09:32:00,46.0,26.0,29.61,North,-999,-999.0,-999.0,46,0.00,,,0.00,,2013-04-18 13:32:00,
2013-04-18 09:42:00,46.0,26.0,29.61,North,-999,-999.0,-999.0,46,0.00,,,0.00,,2013-04-18 13:42:00,
2013-04-18 09:53:00,46.0,26.0,29.61,North,-999,-999.0,-999.0,46,0.00,,,0.00,,2013-04-18 13:53:00,
2013-04-18 10:02:00,49.0,29.0,29.62,North,-999,-999.0,-999.0,46,0.00,,,0.00,,2013-04-18 14:02:00,
2013-04-18 10:12:00,49.0,29.0,29.61,North,-999,-999.0,-999.0,45,0.00,,,0.00,,2013-04-18 14:12:00,
2013-04-18 10:22:00,49.0,29.0,29.61,North,-999,-999.0,-999.0,45,0.00,,,0.00,,2013-04-18 14:22:00,
2013-04-18 10:33:00,52.0,30.0,29.60,North,-999,-999.0,-999.0,43,0.00,,,0.00,,2013-04-18 14:33:00,
2013-04-18 10:43:00,52.0,30.0,29.60,North,-999,-999.0,-999.0,43,0.00,,,0.00,,2013-04-18 14:43:00,
2013-04-18 10:52:00,52.0,30.0,29.60,North,-999,-999.0,-999.0,43,0.00,,,0.00,,2013-04-18 14:52:00,
2013-04-18 11:03:00,55.0,31.0,29.59,North,-999,-999.0,-999.0,40,0.00,,,0.00,,2013-04-18 15:03:00,
2013-04-18 11:12:00,55.0,31.0,29.59,North,-999,-999.0,-999.0,40,0.00,,,0.00,,2013-04-18 15:12:00,
2013-04-18 11:22:00,53.0,30.0,29.58,North,-999,-999.0,-999.0,41,0.00,,,0.00,,2013-04-18 15:22:00,
2013-04-18 11:33:00,54.0,30.0,29.58,North,-999,-999.0,-999.0,40,0.00,,,0.00,,2013-04-18 15:33:00,
2013-04-18 11:43:00,55.0,31.0,29.58,North,-999,-999.0,-999.0,40,0.00,,,0.00,,2013-04-18 15:43:00,
2013-04-18 11:53:00,55.0,31.0,29.58,North,-999,-999.0,-999.0,40,0.00,,,0.00,,2013-04-18 15:53:00,
2013-04-18 12:03:00,57.0,32.0,29.58,North,-999,-999.0,-999.0,39,0.00,,,0.00,,2013-04-18 16:03:00,
2013-04-18 12:13:00,58.0,33.0,29.56,North,-999,-999.0,-999.0,38,0.00,,,0.00,,2013-04-18 16:13:00,
2013-04-18 12:23:00,58.0,33.0,29.56,North,-999,-999.0,-999.0,38,0.00,,,0.00,,2013-04-18 16:23:00,
2013-04-18 12:33:00,58.0,33.0,29.56,North,-999,-999.0,-999.0,38,0.00,,,0.00,,2013-04-18 16:33:00,
2013-04-18 12:43:00,59.0,33.0,29.55,North,-999,-999.0,-999.0,38,0.00,,,0.00,,2013-04-18 16:43:00,
2013-04-18 12:53:00,59.0,33.0,29.55,North,-999,-999.0,-999.0,38,0.00,,,0.00,,2013-04-18 16:53:00,
2013-04-18 13:03:00,61.0,35.0,29.54,North,-999,-999.0,-999.0,37,0.00,,,0.00,,2013-04-18 17:03:00,
2013-04-18 13:12:00,61.0,35.0,29.54,North,-999,-999.0,-999.0,37,0.00,,,0.00,,2013-04-18 17:12:00,
2013-04-18 13:22:00,61.0,35.0,29.53,North,-999,-999.0,-999.0,37,0.00,,,0.00,,2013-04-18 17:22:00,
2013-04-18 13:33:00,62.0,35.0,29.52,North,-999,-999.0,-999.0,37,0.00,,,0.00,,2013-04-18 17:33:00,
2013-04-18 13:43:00,62.0,36.0,29.51,North,-999,-999.0,-999.0,38,0.00,,,0.00,,2013-04-18 17:43:00,
2013-04-18 13:52:00,62.0,36.0,29.51,North,-999,-999.0,-999.0,38,0.00,,,0.00,,2013-04-18 17:52:00,
2013-04-18 14:03:00,63.0,36.0,29.51,North,-999,-999.0,-999.0,36,0.00,,,0.00,,2013-04-18 18:03:00,
2013-04-18 14:13:00,63.0,36.0,29.51,North,-999,-999.0,-999.0,36,0.00,,,0.00,,2013-04-18 18:13:00,
2013-04-18 14:23:00,63.0,36.0,29.51,North,-999,-999.0,-999.0,36,0.00,,,0.00,,2013-04-18 18:23:00,
2013-04-18 14:32:00,64.0,37.0,29.49,North,-999,-999.0,-999.0,37,0.00,,,0.00,,2013-04-18 18:32:00,
2013-04-18 14:43:00,64.0,37.0,29.49,North,-999,-999.0,-999.0,37,0.00,,,0.00,,2013-04-18 18:43:00,
2013-04-18 14:53:00,65.0,37.0,29.49,North,-999,-999.0,-999.0,35,0.00,,,0.00,,2013-04-18 18:53:00,
2013-04-18 15:03:00,63.0,35.0,29.48,North,-999,-999.0,-999.0,35,0.00,,,0.00,,2013-04-18 19:03:00,
2013-04-18 15:12:00,63.0,35.0,29.48,North,-999,-999.0,-999.0,35,0.00,,,0.00,,2013-04-18 19:12:00,
2013-04-18 15:22:00,62.0,35.0,29.48,North,-999,-999.0,-999.0,36,0.00,,,0.00,,2013-04-18 19:22:00,
2013-04-18 15:32:00,62.0,35.0,29.47,North,-999,-999.0,-999.0,37,0.00,,,0.00,,2013-04-18 19:32:00,
2013-04-18 15:42:00,62.0,35.0,29.47,North,-999,-999.0,-999.0,37,0.00,,,0.00,,2013-04-18 19:42:00,
2013-04-18 15:52:00,64.0,37.0,29.46,North,-999,-999.0,-999.0,37,0.00,,,0.00,,2013-04-18 19:52:00,
2013-04-18 16:03:00,64.0,37.0,29.45,North,-999,-999.0,-999.0,37,0.00,,,0.00,,2013-04-18 20:03:00,
2013-04-18 16:12:00,64.0,37.0,29.45,North,-999,-999.0,-999.0,37,0.00,,,0.00,,2013-04-18 20:12:00,
2013-04-18 16:22:00,63.0,37.0,29.44,North,-999,-999.0,-999.0,38,0.00,,,0.00,,2013-04-18 20:22:00,
2013-04-18 16:32:00,62.0,36.0,29.44,North,-999,-999.0,-999.0,38,0.00,,,0.00,,2013-04-18 20:32:00,
2013-04-18 16:42:00,61.0,36.0,29.44,North,-999,-999.0,-999.0,39,0.00,,,0.00,,2013-04-18 20:42:00,
2013-04-18 16:52:00,61.0,36.0,29.44,North,-999,-999.0,-999.0,39,0.00,,,0.00,,2013-04-18 20:52:00,
2013-04-18 17:02:00,59.0,35.0,29.43,North,-999,-999.0,-999.0,40,0.00,,,0.00,,2013-04-18 21:02:00,
2013-04-18 17:12:00,59.0,35.0,29.43,North,-999,-999.0,-999.0,40,0.00,,,0.00,,2013-04-18 21:12:00,
2013-04-18 17:22:00,58.0,34.0,29.43,North,-999,-999.0,-999.0,41,0.00,,,0.00,,2013-04-18 21:22:00,
2013-04-18 17:33:00,57.0,34.0,29.43,North,-999,-999.0,-999.0,42,0.00,,,0.00,,2013-04-18 21:33:00,
2013-04-18 17:43:00,57.0,35.0,29.42,North,-999,-999.0,-999.0,44,0.00,,,0.00,,2013-04-18 21:43:00,
2013-04-18 17:53:00,57.0,35.0,29.42,North,-999,-999.0,-999.0,44,0.00,,,0.00,,2013-04-18 21:53:00,
2013-04-18 18:03:00,56.0,34.0,29.41,North,-999,-999.0,-999.0,44,0.00,,,0.00,,2013-04-18 22:03:00,
2013-04-18 18:13:00,55.0,35.0,29.41,North,-999,-999.0,-999.0,46,0.00,,,0.00,,2013-04-18 22:13:00,
2013-04-18 18:23:00,55.0,35.0,29.41,North,-999,-999.0,-999.0,46,0.00,,,0.00,,2013-04-18 22:23:00,
2013-04-18 18:33:00,54.0,34.0,29.41,North,-999,-999.0,-999.0,46,0.00,,,0.00,,2013-04-18 22:33:00,
2013-04-18 18:42:00,53.0,34.0,29.40,North,-999,-999.0,-999.0,48,0.00,,,0.00,,2013-04-18 22:42:00,
2013-04-18 18:52:00,53.0,34.0,29.40,North,-999,-999.0,-999.0,48,0.00,,,0.00,,2013-04-18 22:52:00,
2013-04-18 19:04:00,52.0,34.0,29.39,North,-999,-999.0,-999.0,50,0.00,,,0.00,,2013-04-18 23:04:00,
2013-04-18 19:12:00,51.0,34.0,29.38,North,-999,-999.0,-999.0,51,0.00,,,0.00,,2013-04-18 23:12:00,
2013-04-18 19:22:00,51.0,34.0,29.38,North,-999,-999.0,-999.0,51,0.00,,,0.00,,2013-04-18 23:22:00,
2013-04-18 19:32:00,51.0,34.0,29.38,North,-999,-999.0,-999.0,52,0.00,,,0.00,,2013-04-18 23:32:00,
2013-04-18 19:42:00,50.0,34.0,29.38,North,-999,-999.0,-999.0,53,0.00,,,0.00,,2013-04-18 23:42:00,
2013-04-18 19:52:00,50.0,34.0,29.38,North,-999,-999.0,-999.0,53,0.00,,,0.00,,2013-04-18 23:52:00,
2013-04-18 20:01:00,50.0,34.0,29.38,North,-999,-999.0,-999.0,53,0.00,,,0.00,,2013-04-19 00:01:00,
2013-04-18 20:12:00,50.0,34.0,29.38,North,-999,-999.0,-999.0,53,0.00,,,0.00,,2013-04-19 00:12:00,
2013-04-18 20:22:00,50.0,34.0,29.37,North,-999,-999.0,-999.0,54,0.00,,,0.00,,2013-04-19 00:22:00,
2013-04-18 20:32:00,50.0,34.0,29.37,North,-999,-999.0,-999.0,53,0.00,,,0.00,,2013-04-19 00:32:00,
2013-04-18 20:42:00,50.0,34.0,29.37,North,-999,-999.0,-999.0,53,0.00,,,0.00,,2013-04-19 00:42:00,
2013-04-18 20:52:00,50.0,33.0,29.37,North,-999,-999.0,-999.0,52,0.00,,,0.00,,2013-04-19 00:52:00,
2013-04-18 21:01:00,50.0,33.0,29.37,North,-999,-999.0,-999.0,52,0.00,,,0.00,,2013-04-19 01:01:00,
2013-04-18 21:11:00,50.0,33.0,29.37,North,-999,-999.0,-999.0,52,0.00,,,0.00,,2013-04-19 01:11:00,
2013-04-18 21:21:00,50.0,31.0,29.37,North,-999,-999.0,-999.0,48,0.00,,,0.00,,2013-04-19 01:21:00,
2013-04-18 21:32:00,51.0,31.0,29.35,North,-999,-999.0,-999.0,46,0.00,,,0.00,,2013-04-19 01:32:00,
2013-04-18 21:42:00,51.0,31.0,29.35,North,-999,-999.0,-999.0,46,0.00,,,0.00,,2013-04-19 01:42:00,
2013-04-18 21:52:00,51.0,31.0,29.36,North,-999,-999.0,-999.0,46,0.00,,,0.00,,2013-04-19 01:52:00,
2013-04-18 22:02:00,50.0,30.0,29.36,North,-999,-999.0,-999.0,46,0.00,,,0.00,,2013-04-19 02:02:00,
2013-04-18 22:11:00,50.0,30.0,29.36,North,-999,-999.0,-999.0,46,0.00,,,0.00,,2013-04-19 02:11:00,
2013-04-18 22:21:00,50.0,29.0,29.36,North,-999,-999.0,-999.0,45,0.00,,,0.00,,2013-04-19 02:21:00,
2013-04-18 22:32:00,50.0,29.0,29.36,North,-999,-999.0,-999.0,45,0.00,,,0.00,,2013-04-19 02:32:00,
2013-04-18 22:42:00,50.0,29.0,29.36,North,-999,-999.0,-999.0,45,0.00,,,0.00,,2013-04-19 02:42:00,
2013-04-18 22:52:00,50.0,29.0,29.36,North,-999,-999.0,-999.0,45,0.00,,,0.00,,2013-04-19 02:52:00,
2013-04-18 23:01:00,50.0,30.0,29.35,North,-999,-999.0,-999.0,46,0.00,,,0.00,,2013-04-19 03:01:00,
2013-04-18 23:12:00,50.0,30.0,29.35,North,-999,-999.0,-999.0,46,0.00,,,0.00,,2013-04-19 03:12:00,
2013-04-18 23:22:00,50.0,31.0,29.35,North,-999,-999.0,-999.0,47,0.00,,,0.00,,2013-04-19 03:22:00,
2013-04-18 23:33:00,50.0,31.0,29.34,North,-999,-999.0,-999.0,48,0.00,,,0.00,,2013-04-19 03:33:00,
2013-04-18 23:43:00,50.0,31.0,29.34,North,-999,-999.0,-999.0,48,0.00,,,0.00,,2013-04-19 03:43:00,
2013-04-18 23:53:00,50.0,31.0,29.34,North,-999,-999.0,-999.0,48,0.00,,,0.00,,2013-04-19 03:53:00,